Time;durP1;ratioP1;P1;durP2;ratioP2;P2;SDS_P1;SDS_P2;PMS_P1;PMS_P2;Temp;Humidity;BMP_temperature;BMP_pressure;BME280_temperature;BME280_humidity;BME280_pressure;Samples;Min_cycle;Max_cycle;Signal;HPM_P1;HPM_P2
2023/10/21 00:01:28;;;;;;;12.70;6.28;;;;;;;-144.73;100.00;54662.22;4827765;29;20041;-74
2023/10/21 00:03:54;;;;;;;19.75;8.38;;;;;;;-144.73;100.00;54662.22;4827179;29;20076;-74
2023/10/21 00:06:19;;;;;;;17.30;7.97;;;;;;;-144.73;100.00;54629.38;4828226;29;20037;-74
2023/10/21 00:08:44;;;;;;;17.23;6.60;;;;;;;-144.73;100.00;54623.22;4829948;29;20046;-74
2023/10/21 00:11:12;;;;;;;16.13;8.05;;;;;;;-144.73;100.00;54633.47;4827898;29;20022;-74
2023/10/21 00:13:38;;;;;;;22.98;8.68;;;;;;;-144.73;100.00;54612.97;4827239;29;20034;-74
2023/10/21 00:16:04;;;;;;;22.02;9.38;;;;;;;-144.73;100.00;54658.13;4827642;29;20038;-74
2023/10/21 00:18:29;;;;;;;21.48;9.02;;;;;;;-144.73;100.00;54629.38;4826814;29;20037;-74
2023/10/21 00:20:55;;;;;;;25.38;9.98;;;;;;;-144.73;100.00;54637.59;4851358;29;20030;-74
2023/10/21 00:23:21;;;;;;;27.67;10.63;;;;;;;-144.73;100.00;54656.06;4842604;29;20076;-74
2023/10/21 00:25:46;;;;;;;25.50;9.88;;;;;;;-144.73;100.00;54627.31;4841977;29;20038;-74
2023/10/21 00:28:12;;;;;;;29.75;10.93;;;;;;;-144.73;100.00;54639.63;4827382;29;20553;-73
2023/10/21 00:30:38;;;;;;;29.70;11.27;;;;;;;-144.73;100.00;54596.53;4826293;29;20038;-74
2023/10/21 00:33:03;;;;;;;26.90;11.88;;;;;;;-144.73;100.00;54629.38;4827394;29;20052;-75
2023/10/21 00:35:31;;;;;;;29.23;10.63;;;;;;;-144.73;100.00;54629.38;4839932;29;20052;-74
2023/10/21 00:37:57;;;;;;;29.02;10.98;;;;;;;-144.73;100.00;54635.53;4843213;29;20030;-74
2023/10/21 00:40:23;;;;;;;25.83;11.00;;;;;;;-144.73;100.00;54633.47;4844377;29;20125;-73
2023/10/21 00:42:48;;;;;;;28.73;12.25;;;;;;;-144.73;100.00;54629.38;4843284;29;20108;-74
2023/10/21 00:45:14;;;;;;;38.20;12.27;;;;;;;-144.73;100.00;54637.59;4841585;29;20038;-74
2023/10/21 00:47:39;;;;;;;32.35;10.63;;;;;;;-144.73;100.00;54649.91;4842174;29;20026;-74
2023/10/21 00:50:05;;;;;;;23.63;10.15;;;;;;;-144.73;100.00;54629.38;4836661;29;20113;-75
2023/10/21 00:52:30;;;;;;;32.05;11.73;;;;;;;-144.73;100.00;54637.59;4840693;29;20037;-74
2023/10/21 00:54:58;;;;;;;32.53;12.32;;;;;;;-144.73;100.00;54676.59;4831086;29;20044;-74
2023/10/21 00:57:23;;;;;;;29.60;11.15;;;;;;;-144.73;100.00;54631.44;4827173;29;20025;-74
2023/10/21 00:59:49;;;;;;;35.17;11.73;;;;;;;-144.73;100.00;54649.91;4833788;29;20053;-74
2023/10/21 01:02:14;;;;;;;32.20;11.95;;;;;;;-144.73;100.00;54662.22;4857337;29;20025;-74
2023/10/21 01:04:41;;;;;;;30.38;12.13;;;;;;;-144.73;100.00;54641.69;4826920;29;20490;-74
2023/10/21 01:07:14;;;;;;;33.40;12.57;;;;;;;-144.73;100.00;54680.69;4827011;29;20038;-73
2023/10/21 01:09:39;;;;;;;35.78;13.35;;;;;;;-144.73;100.00;54637.59;4829945;29;20062;-74
2023/10/21 01:12:05;;;;;;;31.85;12.25;;;;;;;-144.73;100.00;54674.53;4844624;29;20488;-74
2023/10/21 01:14:30;;;;;;;35.00;13.32;;;;;;;-144.73;100.00;54617.06;4856185;29;20097;-74
2023/10/21 01:16:55;;;;;;;32.92;13.32;;;;;;;-144.73;100.00;54629.38;4841326;29;20082;-74
2023/10/21 01:19:21;;;;;;;33.13;13.13;;;;;;;-144.73;100.00;54592.44;4825346;29;20050;-74
2023/10/21 01:21:46;;;;;;;41.38;14.20;;;;;;;-144.73;100.00;54645.78;4825901;29;20037;-74
2023/10/21 01:24:12;;;;;;;36.42;13.63;;;;;;;-144.73;100.00;54641.69;4831816;29;20034;-74
2023/10/21 01:26:37;;;;;;;47.92;14.43;;;;;;;-144.73;100.00;54637.59;4826608;29;20072;-74
2023/10/21 01:29:09;;;;;;;37.95;14.15;;;;;;;-144.73;100.00;54670.44;4841759;29;20045;-74
2023/10/21 01:31:35;;;;;;;50.10;15.95;;;;;;;-144.73;100.00;54656.06;4843490;29;20549;-74
2023/10/21 01:34:01;;;;;;;53.10;16.75;;;;;;;-144.73;100.00;54641.69;4840107;29;20064;-74
2023/10/21 01:36:27;;;;;;;51.25;16.55;;;;;;;-144.73;100.00;54637.59;4841474;29;20038;-74
2023/10/21 01:38:52;;;;;;;47.88;17.40;;;;;;;-144.73;100.00;54608.84;4855915;29;20133;-74
2023/10/21 01:41:18;;;;;;;65.45;20.00;;;;;;;-144.73;100.00;54674.53;4828263;29;20061;-74
2023/10/21 01:43:44;;;;;;;71.32;19.50;;;;;;;-144.73;100.00;54672.47;4841423;29;20025;-74
2023/10/21 01:46:10;;;;;;;59.92;16.60;;;;;;;-144.73;100.00;54625.28;4840554;29;20030;-74
2023/10/21 01:48:36;;;;;;;55.90;17.55;;;;;;;-144.73;100.00;54649.91;4855280;29;20127;-74
2023/10/21 01:51:05;;;;;;;67.78;20.60;;;;;;;-144.73;100.00;54645.78;4825957;29;20030;-75
2023/10/21 01:53:31;;;;;;;71.95;20.42;;;;;;;-144.73;100.00;54604.75;4841145;29;20033;-75
2023/10/21 01:56:03;;;;;;;75.93;21.77;;;;;;;-144.73;100.00;54645.78;4825443;29;20033;-76
2023/10/21 01:58:30;;;;;;;64.53;20.00;;;;;;;-144.73;100.00;54604.75;4841098;29;20398;-75
2023/10/21 02:00:56;;;;;;;75.40;20.40;;;;;;;-144.73;100.00;54654.00;4854930;29;20175;-75
2023/10/21 02:03:21;;;;;;;78.57;22.30;;;;;;;-144.73;100.00;54637.59;4840764;29;20541;-75
2023/10/21 02:05:46;;;;;;;81.40;21.65;;;;;;;-144.73;100.00;54619.13;4841164;29;20073;-76
2023/10/21 02:08:12;;;;;;;80.22;22.95;;;;;;;-144.73;100.00;54662.22;4825169;29;20022;-76
2023/10/21 02:10:41;;;;;;;82.68;23.15;;;;;;;-144.73;100.00;54670.44;4840439;29;20045;-76
2023/10/21 02:13:06;;;;;;;78.75;22.27;;;;;;;-144.73;100.00;54629.38;4846687;29;20033;-76
2023/10/21 02:15:39;;;;;;;61.92;20.67;;;;;;;-144.73;100.00;54633.47;4839767;29;20055;-76
2023/10/21 02:18:05;;;;;;;72.50;22.27;;;;;;;-144.73;100.00;54625.28;4847272;29;20034;-76
2023/10/21 02:20:31;;;;;;;75.80;24.00;;;;;;;-144.73;100.00;54637.59;4849651;29;20121;-76
2023/10/21 02:22:56;;;;;;;80.95;23.27;;;;;;;-144.73;100.00;54682.75;4827340;29;20058;-75
2023/10/21 02:25:22;;;;;;;84.63;24.15;;;;;;;-144.73;100.00;54662.22;4838496;29;20090;-75
2023/10/21 02:27:47;;;;;;;72.10;21.00;;;;;;;-144.73;100.00;54651.97;4841670;29;20082;-75
2023/10/21 02:30:17;;;;;;;81.65;24.40;;;;;;;-144.73;100.00;54641.69;4840804;29;20046;-76
2023/10/21 02:32:47;;;;;;;91.70;26.13;;;;;;;-144.73;100.00;54654.00;4839796;29;20045;-76
2023/10/21 02:35:13;;;;;;;80.53;24.98;;;;;;;-144.73;100.00;54647.84;4840470;29;20042;-76
2023/10/21 02:37:38;;;;;;;100.82;27.73;;;;;;;-144.73;100.00;54645.78;4840430;29;20082;-77
2023/10/21 02:40:05;;;;;;;80.68;23.92;;;;;;;-144.73;100.00;54662.22;4839540;29;20042;-76
2023/10/21 02:42:30;;;;;;;93.22;25.52;;;;;;;-144.73;100.00;54629.38;4839933;29;20022;-76
2023/10/21 02:44:57;;;;;;;100.20;26.75;;;;;;;-144.73;100.00;54649.91;4841003;29;20487;-77
2023/10/21 02:47:23;;;;;;;89.45;26.98;;;;;;;-144.73;100.00;54649.91;4829593;29;20065;-78
2023/10/21 02:49:48;;;;;;;116.88;29.25;;;;;;;-144.73;100.00;54631.44;4824956;29;20038;-76
2023/10/21 02:52:15;;;;;;;121.00;28.98;;;;;;;-144.73;100.00;54633.47;4842779;29;20095;-77
2023/10/21 02:54:40;;;;;;;113.43;29.25;;;;;;;-144.73;100.00;54662.22;4850379;29;20086;-77
2023/10/21 02:57:06;;;;;;;102.75;28.52;;;;;;;-144.73;100.00;54633.47;4848110;29;20041;-77
2023/10/21 02:59:31;;;;;;;108.65;29.45;;;;;;;-144.73;100.00;54658.13;4839195;29;20046;-77
2023/10/21 03:01:56;;;;;;;140.70;33.33;;;;;;;-144.73;100.00;54658.13;4838398;29;20025;-77
2023/10/21 03:04:22;;;;;;;137.30;32.53;;;;;;;-144.73;100.00;54621.16;4855392;29;20494;-77
2023/10/21 03:06:47;;;;;;;131.18;31.73;;;;;;;-144.73;100.00;54631.44;4824522;29;20030;-77
2023/10/21 03:09:15;;;;;;;109.45;29.20;;;;;;;-144.73;100.00;54651.97;4825479;29;20066;-77
2023/10/21 03:11:44;;;;;;;118.70;29.73;;;;;;;-144.73;100.00;54600.63;4825013;29;20029;-78
2023/10/21 03:14:09;;;;;;;154.07;33.53;;;;;;;-144.73;100.00;54625.28;4839565;29;20038;-77
2023/10/21 03:16:35;;;;;;;114.82;29.90;;;;;;;-144.73;100.00;54637.59;4825465;29;20057;-77
2023/10/21 03:19:01;;;;;;;130.90;30.50;;;;;;;-144.73;100.00;54615.00;4824185;29;20042;-77
2023/10/21 03:21:27;;;;;;;107.68;29.52;;;;;;;-144.73;100.00;54654.00;4825788;29;20030;-78
2023/10/21 03:23:53;;;;;;;155.13;35.05;;;;;;;-144.73;100.00;54619.13;4840989;29;20074;-78
2023/10/21 03:26:18;;;;;;;107.32;27.48;;;;;;;-144.73;100.00;54625.28;4841677;29;20463;-78
2023/10/21 03:28:50;;;;;;;228.65;40.63;;;;;;;-144.73;100.00;54627.31;4826617;29;20117;-78
2023/10/21 03:31:16;;;;;;;174.88;37.95;;;;;;;-144.73;100.00;54623.22;4827296;29;20021;-77
2023/10/21 03:33:41;;;;;;;152.88;33.78;;;;;;;-144.73;100.00;54670.44;4841866;29;20041;-77
2023/10/21 03:36:07;;;;;;;170.55;34.92;;;;;;;-144.73;100.00;54641.69;4841918;29;20038;-77
2023/10/21 03:38:35;;;;;;;122.78;29.77;;;;;;;-144.73;100.00;54621.16;4839244;29;20094;-77
2023/10/21 03:41:09;;;;;;;172.45;37.53;;;;;;;-144.73;100.00;54633.47;4840651;29;20030;-77
2023/10/21 03:43:34;;;;;;;159.10;34.45;;;;;;;-144.73;100.00;54637.59;4853495;29;20030;-78
2023/10/21 03:46:06;;;;;;;168.98;33.67;;;;;;;-144.73;100.00;54647.84;4849915;29;20032;-77
2023/10/21 03:48:32;;;;;;;209.40;38.80;;;;;;;-144.73;100.00;54615.00;4859992;29;20022;-78
2023/10/21 03:54:08;;;;;;;189.48;37.92;;;;;;;-144.73;100.00;54633.47;4876153;24;20057;-75
2023/10/21 03:56:36;;;;;;;209.73;38.58;;;;;;;-144.73;100.00;54645.78;4863904;29;20074;-75
2023/10/21 03:59:02;;;;;;;185.50;37.85;;;;;;;-144.73;100.00;54625.28;4846460;29;20118;-75
2023/10/21 04:01:30;;;;;;;213.68;40.85;;;;;;;-144.73;100.00;54621.16;4846665;29;20060;-75
2023/10/21 04:03:56;;;;;;;228.15;36.78;;;;;;;-144.73;100.00;54682.75;4846615;29;20047;-75
2023/10/21 04:06:23;;;;;;;177.20;32.05;;;;;;;-144.73;100.00;54612.97;4846875;29;20037;-75
2023/10/21 04:08:51;;;;;;;246.13;41.35;;;;;;;-144.73;100.00;54658.13;4846607;29;20041;-75
2023/10/21 04:11:21;;;;;;;243.75;41.08;;;;;;;-144.73;100.00;54670.44;4846650;29;20041;-75
2023/10/21 04:13:46;;;;;;;238.45;41.17;;;;;;;-144.73;100.00;54662.22;4846820;29;20037;-75
2023/10/21 04:16:14;;;;;;;189.70;35.55;;;;;;;-144.73;100.00;54608.84;4846942;29;20066;-75
2023/10/21 04:18:40;;;;;;;222.50;39.20;;;;;;;-144.73;100.00;54625.28;4845801;29;20136;-75
2023/10/21 04:21:05;;;;;;;183.02;38.40;;;;;;;-144.73;100.00;54645.78;4846357;29;20093;-75
2023/10/21 04:23:34;;;;;;;173.45;36.53;;;;;;;-144.73;100.00;54658.13;4861393;29;20040;-75
2023/10/21 04:25:59;;;;;;;113.18;29.20;;;;;;;-144.73;100.00;54654.00;4846301;29;20025;-74
2023/10/21 04:28:25;;;;;;;188.30;38.33;;;;;;;-144.73;100.00;54658.13;4846189;29;20082;-75
2023/10/21 04:30:53;;;;;;;176.35;36.03;;;;;;;-144.73;100.00;54596.53;4846628;29;20030;-75
2023/10/21 04:33:18;;;;;;;313.88;45.55;;;;;;;-144.73;100.00;54621.16;4845825;29;20029;-75
2023/10/21 04:35:44;;;;;;;202.93;39.10;;;;;;;-144.73;100.00;54719.69;4846274;29;20394;-75
2023/10/21 04:38:12;;;;;;;146.88;32.55;;;;;;;-144.73;100.00;54617.06;4863137;29;20038;-75
2023/10/21 04:40:37;;;;;;;169.30;36.58;;;;;;;-144.73;100.00;54686.84;4846085;29;20042;-76
2023/10/21 04:43:03;;;;;;;198.02;37.95;;;;;;;-144.73;100.00;54649.91;4846125;29;20037;-76
2023/10/21 04:45:29;;;;;;;223.15;40.95;;;;;;;-144.73;100.00;54658.13;4846161;29;20108;-76
2023/10/21 04:47:57;;;;;;;221.90;40.90;;;;;;;-144.73;100.00;54637.59;4862891;29;20161;-75
2023/10/21 04:50:23;;;;;;;198.40;38.20;;;;;;;-144.73;100.00;54635.53;4838094;29;20038;-76
2023/10/21 04:52:48;;;;;;;206.15;37.50;;;;;;;-144.73;100.00;54651.97;4862048;29;20197;-75
2023/10/21 04:55:14;;;;;;;173.98;36.70;;;;;;;-144.73;100.00;54656.06;4845052;29;20034;-75
2023/10/21 04:57:39;;;;;;;198.63;37.65;;;;;;;-144.73;100.00;54633.47;4845998;29;20041;-75
2023/10/21 05:00:08;;;;;;;196.88;35.42;;;;;;;-144.73;100.00;54629.38;4862106;29;20048;-76
2023/10/21 05:02:33;;;;;;;163.07;36.88;;;;;;;-144.73;100.00;54682.75;4846479;29;20033;-76
2023/10/21 05:04:58;;;;;;;246.15;41.33;;;;;;;-144.73;100.00;54649.91;4845547;29;20033;-76
2023/10/21 05:07:24;;;;;;;196.85;37.78;;;;;;;-144.73;100.00;54651.97;4846301;29;20029;-76
2023/10/21 05:09:49;;;;;;;242.35;44.10;;;;;;;-144.73;100.00;54660.16;4845514;29;20097;-76
2023/10/21 05:12:15;;;;;;;177.43;34.85;;;;;;;-144.73;100.00;54641.69;4846248;29;20048;-75
2023/10/21 05:14:40;;;;;;;211.77;38.83;;;;;;;-144.73;100.00;54641.69;4845329;29;20038;-76
2023/10/21 05:17:06;;;;;;;226.65;41.03;;;;;;;-144.73;100.00;54654.00;4845446;29;20029;-76
2023/10/21 05:19:31;;;;;;;173.43;38.00;;;;;;;-144.73;100.00;54678.63;4845019;29;20044;-76
2023/10/21 05:21:57;;;;;;;240.57;42.00;;;;;;;-144.73;100.00;54641.69;4845681;29;20036;-75
2023/10/21 05:24:22;;;;;;;190.45;36.42;;;;;;;-144.73;100.00;54633.47;4844723;29;20045;-75
2023/10/21 05:26:47;;;;;;;186.70;38.88;;;;;;;-144.73;100.00;54592.44;4845227;29;20033;-75
2023/10/21 05:29:13;;;;;;;181.07;37.65;;;;;;;-144.73;100.00;54608.84;4845427;29;20185;-75
2023/10/21 05:31:38;;;;;;;187.13;41.13;;;;;;;-144.73;100.00;54637.59;4845778;29;20486;-75
2023/10/21 05:34:04;;;;;;;207.75;39.47;;;;;;;-144.73;100.00;54674.53;4844877;29;20037;-76
2023/10/21 05:36:30;;;;;;;204.90;41.95;;;;;;;-144.73;100.00;54688.91;4862268;29;20587;-76
2023/10/21 05:38:55;;;;;;;191.13;38.45;;;;;;;-144.73;100.00;54707.38;4844547;29;20034;-75
2023/10/21 05:41:21;;;;;;;213.10;41.25;;;;;;;-144.73;100.00;54686.84;4861343;29;20040;-77
2023/10/21 05:43:47;;;;;;;170.18;36.67;;;;;;;-144.73;100.00;54670.44;4844511;29;20033;-75
2023/10/21 05:46:12;;;;;;;166.85;35.60;;;;;;;-144.73;100.00;54641.69;4845191;29;20025;-75
2023/10/21 05:48:38;;;;;;;226.23;41.75;;;;;;;-144.73;100.00;54682.75;4860007;29;20021;-75
2023/10/21 05:51:04;;;;;;;175.43;35.20;;;;;;;-144.73;100.00;54643.75;4844912;29;20054;-76
2023/10/21 05:53:29;;;;;;;225.48;41.15;;;;;;;-144.73;100.00;54629.38;4844270;29;20401;-75
2023/10/21 05:55:56;;;;;;;185.73;39.28;;;;;;;-144.73;100.00;54641.69;4861297;29;20060;-74
2023/10/21 05:58:28;;;;;;;246.90;43.40;;;;;;;-144.73;100.00;54629.38;4844568;29;20098;-75
2023/10/21 06:00:56;;;;;;;158.38;34.97;;;;;;;-144.73;100.00;54674.53;4861105;29;20097;-75
2023/10/21 06:03:21;;;;;;;177.98;39.40;;;;;;;-144.73;100.00;54649.91;4845124;29;20528;-75
2023/10/21 06:05:47;;;;;;;197.52;37.50;;;;;;;-144.73;100.00;54612.97;4844454;29;20069;-75
2023/10/21 06:08:13;;;;;;;221.80;54.58;;;;;;;-144.73;100.00;54670.44;4845129;29;20024;-76
2023/10/21 06:10:39;;;;;;;199.20;39.97;;;;;;;-144.73;100.00;54658.13;4844533;29;20037;-75
2023/10/21 06:13:05;;;;;;;141.13;36.33;;;;;;;-144.73;100.00;54637.59;4859913;29;20029;-77
2023/10/21 06:15:32;;;;;;;142.40;34.58;;;;;;;-144.73;100.00;54635.53;4824574;29;20034;-77
2023/10/21 06:17:57;;;;;;;154.20;37.10;;;;;;;-144.73;100.00;54647.84;4822104;29;20026;-77
2023/10/21 06:20:24;;;;;;;185.82;39.03;;;;;;;-144.73;100.00;54645.78;4825512;29;20053;-78
2023/10/21 06:22:52;;;;;;;147.07;29.65;;;;;;;-144.73;100.00;54674.53;4846278;29;20026;-79
2023/10/21 06:25:18;;;;;;;153.13;37.25;;;;;;;-144.73;100.00;54633.47;4831757;29;20034;-79
2023/10/21 06:27:43;;;;;;;171.38;37.30;;;;;;;-144.73;100.00;54645.78;4842948;29;20025;-78
2023/10/21 06:30:10;;;;;;;163.68;37.53;;;;;;;-144.73;100.00;54625.28;4819149;29;20044;-78
2023/10/21 06:32:36;;;;;;;144.32;36.17;;;;;;;-144.73;100.00;54645.78;4832245;29;20066;-78
2023/10/21 06:35:02;;;;;;;108.65;30.98;;;;;;;-144.73;100.00;54641.69;4842694;29;20042;-78
2023/10/21 06:37:28;;;;;;;144.05;35.90;;;;;;;-144.73;100.00;54649.91;4828237;29;20438;-78
2023/10/21 06:39:53;;;;;;;174.57;36.70;;;;;;;-144.73;100.00;54684.78;4835060;29;20043;-79
2023/10/21 06:42:18;;;;;;;122.18;30.95;;;;;;;-144.73;100.00;54645.78;4840702;29;20026;-80
2023/10/21 06:44:47;;;;;;;105.85;30.70;;;;;;;-144.73;100.00;54682.75;4830454;29;20038;-79
2023/10/21 06:47:13;;;;;;;111.63;29.83;;;;;;;-144.73;100.00;54637.59;4829815;29;20051;-79
2023/10/21 06:49:38;;;;;;;92.43;29.77;;;;;;;-144.73;100.00;54637.59;4827128;29;20127;-78
2023/10/21 06:52:04;;;;;;;77.05;27.73;;;;;;;-144.73;100.00;54637.59;4824973;29;20022;-78
2023/10/21 06:54:30;;;;;;;79.93;27.60;;;;;;;-144.73;100.00;54670.44;4843330;29;20075;-79
2023/10/21 06:56:56;;;;;;;71.25;26.10;;;;;;;-144.73;100.00;54608.84;4845072;29;20206;-78
2023/10/21 06:59:21;;;;;;;67.63;24.65;;;;;;;-144.73;100.00;54631.44;4829706;29;20038;-79
2023/10/21 07:01:46;;;;;;;72.78;23.90;;;;;;;-144.73;100.00;54678.63;4827882;29;20030;-78
2023/10/21 07:04:14;;;;;;;58.17;22.60;;;;;;;-144.73;100.00;54699.16;4825529;29;20026;-78
2023/10/21 07:06:42;;;;;;;60.67;23.50;;;;;;;-144.73;100.00;54662.22;4829561;29;20030;-78
2023/10/21 07:09:11;;;;;;;55.70;21.85;;;;;;;-144.73;100.00;54699.16;4831193;29;20097;-78
2023/10/21 07:11:37;;;;;;;68.88;23.23;;;;;;;-144.73;100.00;54612.97;4846028;29;20564;-78
2023/10/21 07:14:03;;;;;;;53.83;21.92;;;;;;;-144.73;100.00;54670.44;4830423;29;20030;-78
2023/10/21 07:16:29;;;;;;;52.90;22.30;;;;;;;-144.73;100.00;54670.44;4841227;29;20041;-78
2023/10/21 07:18:54;;;;;;;56.60;21.95;;;;;;;-144.73;100.00;54670.44;4834622;29;20041;-79
2023/10/21 07:21:20;;;;;;;58.47;21.08;;;;;;;-144.73;100.00;54662.22;4831318;29;20040;-78
2023/10/21 07:23:46;;;;;;;58.20;22.80;;;;;;;-144.73;100.00;54617.06;4832053;29;20067;-78
2023/10/21 07:26:11;;;;;;;49.13;21.27;;;;;;;-144.73;100.00;54625.28;4837381;29;20029;-80
2023/10/21 07:28:37;;;;;;;57.85;22.77;;;;;;;-144.73;100.00;54649.91;4836673;29;20030;-79
2023/10/21 07:31:03;;;;;;;50.42;21.73;;;;;;;-144.73;100.00;54649.91;4839535;29;20429;-78
2023/10/21 07:33:29;;;;;;;49.40;21.55;;;;;;;-144.73;100.00;54660.16;4837650;29;20094;-79
2023/10/21 07:35:55;;;;;;;61.70;24.35;;;;;;;-144.73;100.00;54678.63;4832443;29;20018;-79
2023/10/21 07:38:20;;;;;;;55.92;22.70;;;;;;;-144.73;100.00;54658.13;4832943;29;20422;-80
2023/10/21 07:40:47;;;;;;;58.80;24.58;;;;;;;-144.73;100.00;54658.13;4832092;29;20438;-80
2023/10/21 07:43:13;;;;;;;65.45;23.80;;;;;;;-144.73;100.00;54608.84;4841758;29;20028;-77
2023/10/21 07:45:40;;;;;;;72.55;27.38;;;;;;;-144.73;100.00;54670.44;4824645;29;20042;-72
2023/10/21 07:48:06;;;;;;;46.72;20.27;;;;;;;-144.73;100.00;54617.06;4827100;29;20481;-72
2023/10/21 07:50:32;;;;;;;46.28;20.80;;;;;;;-144.73;100.00;54662.22;4841334;29;20065;-71
2023/10/21 07:52:58;;;;;;;66.65;26.30;;;;;;;-144.73;100.00;54658.13;4823312;29;20041;-72
2023/10/21 07:55:26;;;;;;;71.03;24.67;;;;;;;-144.73;100.00;54654.00;4822440;29;20080;-70
2023/10/21 07:57:55;;;;;;;54.53;22.50;;;;;;;-144.73;100.00;54619.13;4823223;29;20054;-71
2023/10/21 08:00:20;;;;;;;55.35;23.10;;;;;;;-144.73;100.00;54686.84;4838502;29;20042;-72
2023/10/21 08:02:45;;;;;;;51.58;20.88;;;;;;;-144.73;100.00;54662.22;4823093;29;20042;-70
2023/10/21 08:05:11;;;;;;;40.65;17.08;;;;;;;-144.73;100.00;54608.84;4823787;29;20034;-71
2023/10/21 08:07:37;;;;;;;36.90;17.23;;;;;;;-144.73;100.00;54686.84;4824718;29;20042;-71
2023/10/21 08:10:05;;;;;;;49.20;19.17;;;;;;;-144.73;100.00;54645.78;4838440;29;20053;-71
2023/10/21 08:12:32;;;;;;;33.78;16.30;;;;;;;-144.73;100.00;54645.78;4838595;29;20117;-71
2023/10/21 08:14:58;;;;;;;51.25;20.40;;;;;;;-144.73;100.00;54608.84;4839622;29;20089;-71
2023/10/21 08:17:24;;;;;;;30.73;15.05;;;;;;;-144.73;100.00;54627.31;4840618;29;20473;-72
2023/10/21 08:19:50;;;;;;;39.25;17.05;;;;;;;-144.73;100.00;54623.22;4833038;29;20052;-72
2023/10/21 08:22:15;;;;;;;38.55;16.92;;;;;;;-144.73;100.00;54670.44;4829018;29;20075;-71
2023/10/21 08:24:41;;;;;;;35.33;15.98;;;;;;;-144.73;100.00;54617.06;4830188;29;20059;-71
2023/10/21 08:27:06;;;;;;;44.03;16.27;;;;;;;-144.73;100.00;54617.06;4830678;29;20039;-73
2023/10/21 08:29:31;;;;;;;38.13;16.80;;;;;;;-144.73;100.00;54645.78;4822415;29;20074;-71
2023/10/21 08:31:57;;;;;;;36.35;16.42;;;;;;;-144.73;100.00;54625.28;4838191;29;20034;-72
2023/10/21 08:34:22;;;;;;;39.38;15.52;;;;;;;-144.73;100.00;54695.06;4817796;29;20073;-71
2023/10/21 08:36:49;;;;;;;36.90;17.55;;;;;;;-144.73;100.00;54604.75;4829735;29;20524;-72
2023/10/21 08:39:14;;;;;;;42.97;17.23;;;;;;;-144.73;100.00;54670.44;4822936;29;20497;-72
2023/10/21 08:41:39;;;;;;;45.15;18.23;;;;;;;-144.73;100.00;54641.69;4819936;29;20033;-71
2023/10/21 08:44:07;;;;;;;47.85;17.00;;;;;;;-144.73;100.00;54670.44;4819694;29;20057;-72
2023/10/21 08:46:33;;;;;;;40.78;17.80;;;;;;;-144.73;100.00;54645.78;4835821;29;20120;-72
2023/10/21 08:49:00;;;;;;;40.67;17.90;;;;;;;-144.73;100.00;54670.44;4819589;29;20042;-71
2023/10/21 08:51:26;;;;;;;49.78;18.27;;;;;;;-144.73;100.00;54649.91;4835530;29;20042;-72
2023/10/21 08:53:53;;;;;;;40.65;17.80;;;;;;;-144.73;100.00;54658.13;4798141;29;1068412;-72
2023/10/21 08:56:19;;;;;;;39.00;16.27;;;;;;;-144.73;100.00;54670.44;4827088;29;20404;-72
2023/10/21 08:58:46;;;;;;;33.25;14.52;;;;;;;-144.73;100.00;54678.63;4846362;29;20053;-71
2023/10/21 09:01:16;;;;;;;29.85;13.27;;;;;;;-144.73;100.00;54625.28;4850333;29;20029;-72
2023/10/21 09:03:45;;;;;;;34.05;15.57;;;;;;;-144.73;100.00;54674.53;4825756;29;20048;-71
2023/10/21 09:06:11;;;;;;;36.88;15.63;;;;;;;-144.73;100.00;54633.47;4845845;29;20052;-71
2023/10/21 09:08:41;;;;;;;35.75;16.42;;;;;;;-144.73;100.00;54633.47;4845808;29;20033;-71
2023/10/21 09:11:11;;;;;;;32.42;14.35;;;;;;;-144.73;100.00;54645.78;4830236;29;20077;-72
2023/10/21 09:13:40;;;;;;;24.77;12.50;;;;;;;-144.73;100.00;54647.84;4830589;29;20033;-71
2023/10/21 09:16:21;;;;;;;27.35;13.90;;;;;;;-144.73;100.00;54641.69;4834277;29;20048;-70
2023/10/21 09:19:07;;;;;;;22.80;11.82;;;;;;;-144.73;100.00;54625.28;4845723;29;20152;-71
2023/10/21 09:21:43;;;;;;;21.75;12.68;;;;;;;-144.73;100.00;54625.28;4828753;29;20133;-71
2023/10/21 09:24:22;;;;;;;21.25;11.00;;;;;;;-144.73;100.00;54600.63;4816859;29;20050;-70
2023/10/21 09:26:48;;;;;;;21.17;11.50;;;;;;;-144.73;100.00;54645.78;4818141;29;20382;-71
2023/10/21 09:29:19;;;;;;;23.20;12.18;;;;;;;-144.73;100.00;54625.28;4821570;29;20045;-71
2023/10/21 09:31:52;;;;;;;19.00;9.88;;;;;;;-144.73;100.00;54662.22;4842297;29;20033;-70
2023/10/21 09:34:30;;;;;;;21.58;12.00;;;;;;;-144.73;100.00;54649.91;4840243;29;20054;-71
2023/10/21 09:37:06;;;;;;;25.05;12.77;;;;;;;-144.73;100.00;54633.47;4831686;29;20029;-71
2023/10/21 09:39:43;;;;;;;17.90;10.00;;;;;;;-144.73;100.00;54658.13;4840644;29;20544;-70
2023/10/21 09:42:09;;;;;;;17.88;9.35;;;;;;;-144.73;100.00;54633.47;4822819;29;20028;-71
2023/10/21 09:44:35;;;;;;;17.88;10.32;;;;;;;-144.73;100.00;54639.63;4821309;29;20034;-71
2023/10/21 09:47:07;;;;;;;16.15;9.23;;;;;;;-144.73;100.00;54641.69;4837750;29;20033;-70
2023/10/21 09:49:38;;;;;;;16.00;9.50;;;;;;;-144.73;100.00;54670.44;4839303;29;20056;-70
2023/10/21 09:52:11;;;;;;;22.20;10.80;;;;;;;-144.73;100.00;54645.78;4820282;29;20038;-71
2023/10/21 09:54:43;;;;;;;19.92;11.75;;;;;;;-144.73;100.00;54596.53;4837759;29;20040;-71
2023/10/21 09:57:12;;;;;;;23.92;11.68;;;;;;;-144.73;100.00;54629.38;4835434;29;20030;-71
2023/10/21 09:59:38;;;;;;;16.77;10.90;;;;;;;-144.73;100.00;54645.78;4819433;29;20125;-71
2023/10/21 10:02:05;;;;;;;20.58;12.32;;;;;;;-144.73;100.00;54623.22;4838639;29;20034;-71
2023/10/21 10:04:31;;;;;;;23.67;12.57;;;;;;;-144.73;100.00;54649.91;4825825;29;20437;-71
2023/10/21 10:07:06;;;;;;;22.38;11.63;;;;;;;-144.73;100.00;54649.91;4826416;29;20101;-71
2023/10/21 10:09:36;;;;;;;25.83;12.73;;;;;;;-144.73;100.00;54621.16;4837922;29;20037;-71
2023/10/21 10:12:16;;;;;;;27.27;14.38;;;;;;;-144.73;100.00;54617.06;4825342;29;20080;-71
2023/10/21 10:14:41;;;;;;;24.15;14.02;;;;;;;-144.73;100.00;54649.91;4841922;29;20054;-71
2023/10/21 10:17:07;;;;;;;23.95;13.50;;;;;;;-144.73;100.00;54645.78;4826429;29;20041;-71
2023/10/21 10:19:42;;;;;;;30.40;17.20;;;;;;;-144.73;100.00;54654.00;4818626;29;20193;-71
2023/10/21 10:22:28;;;;;;;26.42;14.57;;;;;;;-144.73;100.00;54651.97;4823855;29;20570;-72
2023/10/21 10:25:15;;;;;;;33.42;17.00;;;;;;;-144.73;100.00;54625.28;4835704;29;20046;-72
2023/10/21 10:27:42;;;;;;;26.42;14.15;;;;;;;-144.73;100.00;54654.00;4834002;29;20759;-72
2023/10/21 10:30:19;;;;;;;35.33;17.38;;;;;;;-144.73;100.00;54662.22;4818640;29;20113;-72
2023/10/21 10:32:49;;;;;;;26.45;14.63;;;;;;;-144.73;100.00;54617.06;4819970;29;20041;-73
2023/10/21 10:35:37;;;;;;;38.38;16.92;;;;;;;-144.73;100.00;54658.13;4839879;29;20042;-72
2023/10/21 10:38:31;;;;;;;30.80;16.33;;;;;;;-144.73;100.00;54619.13;4826587;29;20061;-72
2023/10/21 10:41:06;;;;;;;30.63;17.40;;;;;;;-144.73;100.00;54674.53;4828399;29;20083;-72
2023/10/21 10:43:37;;;;;;;37.17;17.35;;;;;;;-144.73;100.00;54682.75;4836843;29;20061;-72
2023/10/21 10:46:04;;;;;;;35.53;18.25;;;;;;;-144.73;100.00;54651.97;4837306;29;20034;-73
2023/10/21 10:48:30;;;;;;;41.50;18.90;;;;;;;-144.73;100.00;54645.78;4835965;29;20041;-73
2023/10/21 10:51:00;;;;;;;33.17;17.90;;;;;;;-144.73;100.00;54658.13;4821363;29;20232;-73
2023/10/21 10:53:26;;;;;;;36.22;18.45;;;;;;;-144.73;100.00;54649.91;4841368;29;20515;-73
2023/10/21 10:55:54;;;;;;;31.55;17.33;;;;;;;-144.73;100.00;54662.22;4843277;29;20060;-73